Time;durP1;ratioP1;P1;durP2;ratioP2;P2;SDS_P1;SDS_P2;PMS_P1;PMS_P2;Temp;Humidity;BMP_temperature;BMP_pressure;BME280_temperature;BME280_humidity;BME280_pressure;Samples;Min_cycle;Max_cycle;Signal;HPM_P1;HPM_P2
2021/08/13 00:00:14;;;;;;;3.38;3.03;;;;;;;;;;4917506;29;20212;-83
2021/08/13 00:02:42;;;;;;;3.70;3.33;;;;;;;;;;4917748;29;20226;-83
2021/08/13 00:05:11;;;;;;;3.50;3.22;;;;;;;;;;4918207;29;20225;-83
2021/08/13 00:07:39;;;;;;;2.92;2.72;;;;;;;;;;4917846;29;20214;-83
2021/08/13 00:10:08;;;;;;;2.78;2.58;;;;;;;;;;4917699;29;20205;-83
2021/08/13 00:12:35;;;;;;;4.35;2.83;;;;;;;;;;4917949;29;20203;-83
2021/08/13 00:15:05;;;;;;;3.20;2.90;;;;;;;;;;4917445;29;20237;-83
2021/08/13 00:17:33;;;;;;;3.08;2.85;;;;;;;;;;4917556;29;20205;-83
2021/08/13 00:20:00;;;;;;;3.75;3.45;;;;;;;;;;4917434;29;20210;-83
2021/08/13 00:22:28;;;;;;;3.53;3.22;;;;;;;;;;4917767;29;20249;-83
2021/08/13 00:24:55;;;;;;;3.42;3.13;;;;;;;;;;4917454;29;20241;-83
2021/08/13 00:27:22;;;;;;;4.03;3.72;;;;;;;;;;4917587;29;20218;-83
2021/08/13 00:29:50;;;;;;;3.50;3.20;;;;;;;;;;4917247;29;20206;-83
2021/08/13 00:32:18;;;;;;;4.25;3.13;;;;;;;;;;4916794;29;20205;-84
2021/08/13 00:34:46;;;;;;;3.63;3.33;;;;;;;;;;4916750;29;20238;-83
2021/08/13 00:37:13;;;;;;;3.33;3.03;;;;;;;;;;4916909;29;20584;-83
2021/08/13 00:39:40;;;;;;;3.67;2.78;;;;;;;;;;4916841;29;20210;-83
2021/08/13 00:42:08;;;;;;;4.03;3.22;;;;;;;;;;4916743;29;20673;-83
2021/08/13 00:44:35;;;;;;;3.58;3.05;;;;;;;;;;4916438;29;20230;-83
2021/08/13 00:47:03;;;;;;;3.25;2.95;;;;;;;;;;4916824;29;20213;-83
2021/08/13 00:49:32;;;;;;;3.42;2.75;;;;;;;;;;4917072;29;20202;-83
2021/08/13 00:51:59;;;;;;;3.10;2.88;;;;;;;;;;4916931;29;20214;-83
2021/08/13 00:54:27;;;;;;;2.60;2.40;;;;;;;;;;4917033;29;20249;-83
2021/08/13 00:56:54;;;;;;;3.03;2.83;;;;;;;;;;4917050;29;20615;-83
2021/08/13 00:59:22;;;;;;;3.65;2.65;;;;;;;;;;4916666;29;20595;-83
2021/08/13 01:01:49;;;;;;;4.75;2.85;;;;;;;;;;4916619;29;20694;-84
2021/08/13 01:04:16;;;;;;;2.90;2.70;;;;;;;;;;4916617;29;20233;-83
2021/08/13 01:06:45;;;;;;;3.00;2.80;;;;;;;;;;4916695;29;20592;-83
2021/08/13 01:09:13;;;;;;;3.40;2.75;;;;;;;;;;4916282;29;20202;-83
2021/08/13 01:11:48;;;;;;;3.05;2.80;;;;;;;;;;4916375;29;20221;-83
2021/08/13 01:14:21;;;;;;;2.80;2.60;;;;;;;;;;4916614;29;20226;-83
2021/08/13 01:16:52;;;;;;;3.47;3.17;;;;;;;;;;4916752;29;20639;-83
2021/08/13 01:19:24;;;;;;;4.32;3.05;;;;;;;;;;4916699;29;20639;-83
2021/08/13 01:21:58;;;;;;;2.78;2.28;;;;;;;;;;4916481;29;20206;-83
2021/08/13 01:24:27;;;;;;;3.45;3.25;;;;;;;;;;4916140;29;20241;-83
2021/08/13 01:27:00;;;;;;;3.00;2.80;;;;;;;;;;4916477;29;20209;-83
2021/08/13 01:29:39;;;;;;;3.15;2.85;;;;;;;;;;4916612;29;20202;-83
2021/08/13 01:32:34;;;;;;;3.38;2.92;;;;;;;;;;4916698;29;20489;-83
2021/08/13 01:35:07;;;;;;;2.65;2.45;;;;;;;;;;4918379;29;20245;-83
2021/08/13 01:37:38;;;;;;;2.42;2.22;;;;;;;;;;4918759;29;20281;-83
2021/08/13 01:40:08;;;;;;;1.67;1.58;;;;;;;;;;4918844;29;20217;-83
2021/08/13 01:42:36;;;;;;;2.20;2.00;;;;;;;;;;4919159;29;20218;-83
2021/08/13 01:45:05;;;;;;;2.75;2.55;;;;;;;;;;4919038;29;20230;-83
2021/08/13 01:47:34;;;;;;;2.63;2.10;;;;;;;;;;4919391;29;20197;-83
2021/08/13 01:50:03;;;;;;;3.42;2.78;;;;;;;;;;4919863;29;20218;-83
2021/08/13 01:52:31;;;;;;;2.80;2.67;;;;;;;;;;4919530;29;20214;-83
2021/08/13 01:54:59;;;;;;;2.72;2.53;;;;;;;;;;4919677;29;20233;-83
2021/08/13 01:57:27;;;;;;;2.88;2.67;;;;;;;;;;4919603;29;20213;-83
2021/08/13 01:59:54;;;;;;;3.50;2.70;;;;;;;;;;4919807;29;20203;-84
2021/08/13 02:02:22;;;;;;;3.10;2.90;;;;;;;;;;4919831;29;20225;-83
2021/08/13 02:04:52;;;;;;;2.60;2.40;;;;;;;;;;4918603;29;20241;-83
2021/08/13 02:07:21;;;;;;;2.83;2.63;;;;;;;;;;4919112;29;20610;-83
2021/08/13 02:09:48;;;;;;;1.90;1.80;;;;;;;;;;4918748;29;20206;-83
2021/08/13 02:12:16;;;;;;;2.08;1.88;;;;;;;;;;4919697;29;20206;-83
2021/08/13 02:14:43;;;;;;;1.77;1.67;;;;;;;;;;4919981;29;20229;-83
2021/08/13 02:17:17;;;;;;;1.92;1.83;;;;;;;;;;4919176;29;20214;-83
2021/08/13 02:19:52;;;;;;;2.60;2.40;;;;;;;;;;4921650;29;20210;-83
2021/08/13 02:22:19;;;;;;;4.03;1.95;;;;;;;;;;4932757;29;20205;-83
2021/08/13 02:24:47;;;;;;;2.40;2.20;;;;;;;;;;4934622;29;20240;-83
2021/08/13 02:27:14;;;;;;;2.85;2.45;;;;;;;;;;4923589;29;20214;-83
2021/08/13 02:29:42;;;;;;;2.97;2.30;;;;;;;;;;4919567;29;20206;-83
2021/08/13 02:32:10;;;;;;;2.50;2.30;;;;;;;;;;4919932;29;20214;-83
2021/08/13 02:34:37;;;;;;;2.53;2.35;;;;;;;;;;4918608;29;20246;-83
2021/08/13 02:37:14;;;;;;;2.45;2.22;;;;;;;;;;4919821;29;20218;-83
2021/08/13 02:39:47;;;;;;;2.72;2.53;;;;;;;;;;4918316;29;20583;-83
2021/08/13 02:42:19;;;;;;;2.35;2.15;;;;;;;;;;4918374;29;20277;-82
2021/08/13 02:44:50;;;;;;;1.90;1.80;;;;;;;;;;4919230;29;20253;-82
2021/08/13 02:47:18;;;;;;;2.33;2.15;;;;;;;;;;4919344;29;20198;-82
2021/08/13 02:49:49;;;;;;;3.47;2.83;;;;;;;;;;4919284;29;20696;-82
2021/08/13 02:52:20;;;;;;;3.03;2.83;;;;;;;;;;4919069;29;20206;-82
2021/08/13 02:54:49;;;;;;;2.90;2.67;;;;;;;;;;4919171;29;20728;-82
2021/08/13 02:57:19;;;;;;;3.60;3.00;;;;;;;;;;4918999;29;20213;-82
2021/08/13 02:59:47;;;;;;;2.63;2.42;;;;;;;;;;4919102;29;20689;-82
2021/08/13 03:02:15;;;;;;;3.10;2.80;;;;;;;;;;4919058;29;20217;-82
2021/08/13 03:04:43;;;;;;;2.97;2.72;;;;;;;;;;4919005;29;20693;-82
2021/08/13 03:07:11;;;;;;;2.88;2.67;;;;;;;;;;4919004;29;20217;-82
2021/08/13 03:09:40;;;;;;;2.97;2.78;;;;;;;;;;4919030;29;20570;-82
2021/08/13 03:12:10;;;;;;;3.55;3.25;;;;;;;;;;4918715;29;20210;-82
2021/08/13 03:14:37;;;;;;;4.18;3.33;;;;;;;;;;4918813;29;20222;-82
2021/08/13 03:17:05;;;;;;;3.38;3.08;;;;;;;;;;4918780;29;20202;-82
2021/08/13 03:19:32;;;;;;;3.05;2.80;;;;;;;;;;4919044;29;20602;-82
2021/08/13 03:22:00;;;;;;;4.78;3.00;;;;;;;;;;4919118;29;20215;-82
2021/08/13 03:24:27;;;;;;;3.28;2.63;;;;;;;;;;4918365;29;20257;-82
2021/08/13 03:26:56;;;;;;;3.15;2.95;;;;;;;;;;4919109;29;20202;-82
2021/08/13 03:29:23;;;;;;;2.70;2.22;;;;;;;;;;4918879;29;20206;-82
2021/08/13 03:31:51;;;;;;;2.72;2.35;;;;;;;;;;4918197;29;20217;-82
2021/08/13 03:34:19;;;;;;;3.67;3.00;;;;;;;;;;4918417;29;20234;-82
2021/08/13 03:36:46;;;;;;;3.70;3.33;;;;;;;;;;4918659;29;20669;-82
2021/08/13 03:39:14;;;;;;;2.33;2.13;;;;;;;;;;4918759;29;20207;-82
2021/08/13 03:41:42;;;;;;;2.80;1.98;;;;;;;;;;4918802;29;20206;-82
2021/08/13 03:44:10;;;;;;;2.05;1.95;;;;;;;;;;4918386;29;20234;-82
2021/08/13 03:46:38;;;;;;;2.38;2.17;;;;;;;;;;4918063;29;20218;-82
2021/08/13 03:49:05;;;;;;;2.20;2.08;;;;;;;;;;4918455;29;20214;-82
2021/08/13 03:51:32;;;;;;;2.63;2.40;;;;;;;;;;4917895;29;20206;-82
2021/08/13 03:54:00;;;;;;;2.13;2.03;;;;;;;;;;4918702;29;20231;-82
2021/08/13 03:56:27;;;;;;;2.65;2.45;;;;;;;;;;4918025;29;20614;-82
2021/08/13 03:58:55;;;;;;;2.28;2.08;;;;;;;;;;4918845;29;20206;-82
2021/08/13 04:01:24;;;;;;;3.67;3.38;;;;;;;;;;4918712;29;20209;-82
2021/08/13 04:03:51;;;;;;;2.72;2.50;;;;;;;;;;4918395;29;20227;-82
2021/08/13 04:06:18;;;;;;;2.67;2.47;;;;;;;;;;4918098;29;20206;-82
2021/08/13 04:08:46;;;;;;;2.92;2.72;;;;;;;;;;4918516;29;20695;-82
2021/08/13 04:11:13;;;;;;;3.00;2.58;;;;;;;;;;4918251;29;20708;-82
2021/08/13 04:13:41;;;;;;;2.85;2.65;;;;;;;;;;4918707;29;20233;-82
2021/08/13 04:16:08;;;;;;;2.90;2.70;;;;;;;;;;4919076;29;20229;-82
2021/08/13 04:18:37;;;;;;;2.40;2.20;;;;;;;;;;4918832;29;20213;-82
2021/08/13 04:21:04;;;;;;;2.47;2.38;;;;;;;;;;4918701;29;20229;-82
2021/08/13 04:23:32;;;;;;;4.25;2.17;;;;;;;;;;4919119;29;20213;-82
2021/08/13 04:25:59;;;;;;;1.80;1.70;;;;;;;;;;4918653;29;20223;-82
2021/08/13 04:28:26;;;;;;;3.03;2.72;;;;;;;;;;4919041;29;20213;-82
2021/08/13 04:30:54;;;;;;;2.30;2.13;;;;;;;;;;4918905;29;20218;-82
2021/08/13 04:33:22;;;;;;;1.90;1.80;;;;;;;;;;4918711;29;20293;-82
2021/08/13 04:35:51;;;;;;;2.47;2.22;;;;;;;;;;4918478;29;20238;-82
2021/08/13 04:38:19;;;;;;;3.00;1.92;;;;;;;;;;4918612;29;20692;-82
2021/08/13 04:40:46;;;;;;;2.72;2.20;;;;;;;;;;4918897;29;20209;-82
2021/08/13 04:43:14;;;;;;;3.25;2.97;;;;;;;;;;4917735;29;20202;-82
2021/08/13 04:45:41;;;;;;;2.65;2.45;;;;;;;;;;4919018;29;20257;-82
2021/08/13 04:48:08;;;;;;;2.42;2.22;;;;;;;;;;4918781;29;20206;-82
2021/08/13 04:50:36;;;;;;;2.40;2.20;;;;;;;;;;4919276;29;20293;-82
2021/08/13 04:53:05;;;;;;;2.92;2.22;;;;;;;;;;4919417;29;20217;-82
2021/08/13 04:55:32;;;;;;;2.00;1.90;;;;;;;;;;4919089;29;20693;-82
2021/08/13 04:58:00;;;;;;;2.20;2.00;;;;;;;;;;4919225;29;20215;-82
2021/08/13 05:00:27;;;;;;;1.98;1.88;;;;;;;;;;4919396;29;20226;-82
2021/08/13 05:02:54;;;;;;;2.05;1.90;;;;;;;;;;4919497;29;20202;-82
2021/08/13 05:05:22;;;;;;;2.10;1.67;;;;;;;;;;4918924;29;20237;-82
2021/08/13 05:07:49;;;;;;;2.13;1.95;;;;;;;;;;4919812;29;20612;-83
2021/08/13 05:10:19;;;;;;;2.58;2.38;;;;;;;;;;4919159;29;20207;-82
2021/08/13 05:12:46;;;;;;;3.15;2.90;;;;;;;;;;4919097;29;20202;-82
2021/08/13 05:15:14;;;;;;;3.28;2.97;;;;;;;;;;4919136;29;20234;-83
2021/08/13 05:17:42;;;;;;;2.92;2.60;;;;;;;;;;4919627;29;20206;-83
2021/08/13 05:20:11;;;;;;;2.58;2.15;;;;;;;;;;4919798;29;20681;-82
2021/08/13 05:22:38;;;;;;;2.40;2.20;;;;;;;;;;4919834;29;20214;-83
2021/08/13 05:25:09;;;;;;;1.92;1.83;;;;;;;;;;4919652;29;20605;-82
2021/08/13 05:27:39;;;;;;;2.72;2.53;;;;;;;;;;4919980;29;20206;-83
2021/08/13 05:30:08;;;;;;;2.60;2.40;;;;;;;;;;4920597;29;20202;-83
2021/08/13 05:32:39;;;;;;;2.85;2.65;;;;;;;;;;4919354;29;20218;-83
2021/08/13 05:35:08;;;;;;;2.80;2.50;;;;;;;;;;4919995;29;20233;-83
2021/08/13 05:37:35;;;;;;;3.63;3.17;;;;;;;;;;4920355;29;20206;-83
2021/08/13 05:40:03;;;;;;;2.97;2.70;;;;;;;;;;4920148;29;20246;-83
2021/08/13 05:42:30;;;;;;;3.38;3.08;;;;;;;;;;4920644;29;20676;-83
2021/08/13 05:44:59;;;;;;;2.97;2.78;;;;;;;;;;4920313;29;20230;-84
2021/08/13 05:47:27;;;;;;;6.63;3.38;;;;;;;;;;4920719;29;20202;-84
2021/08/13 05:49:54;;;;;;;3.25;3.00;;;;;;;;;;4920611;29;20261;-84
2021/08/13 05:52:21;;;;;;;3.80;3.50;;;;;;;;;;4921771;29;20216;-84
2021/08/13 05:54:49;;;;;;;4.40;4.10;;;;;;;;;;4920599;29;20230;-83
2021/08/13 05:57:16;;;;;;;3.53;3.22;;;;;;;;;;4925708;29;20214;-83
2021/08/13 05:59:43;;;;;;;3.28;3.05;;;;;;;;;;4933329;29;20198;-83
2021/08/13 06:02:12;;;;;;;4.82;4.43;;;;;;;;;;4928032;29;20220;-83
2021/08/13 06:04:41;;;;;;;4.00;3.67;;;;;;;;;;4916206;29;20237;-83
2021/08/13 06:07:08;;;;;;;4.22;3.83;;;;;;;;;;4916010;29;20233;-84
2021/08/13 06:09:35;;;;;;;3.45;3.15;;;;;;;;;;4916005;29;20216;-84
2021/08/13 06:12:03;;;;;;;3.22;2.80;;;;;;;;;;4915744;29;20210;-83
2021/08/13 06:14:32;;;;;;;3.05;2.53;;;;;;;;;;4916055;29;20237;-83
2021/08/13 06:17:02;;;;;;;3.25;3.00;;;;;;;;;;4916094;29;20202;-83
2021/08/13 06:19:31;;;;;;;3.13;2.58;;;;;;;;;;4915852;29;20305;-83
2021/08/13 06:21:59;;;;;;;3.47;2.85;;;;;;;;;;4915856;29;20229;-84
2021/08/13 06:24:27;;;;;;;5.50;3.83;;;;;;;;;;4915821;29;20237;-83
2021/08/13 06:26:54;;;;;;;4.25;3.17;;;;;;;;;;4915940;29;20641;-84
2021/08/13 06:29:22;;;;;;;3.22;3.03;;;;;;;;;;4916206;29;20212;-84
2021/08/13 06:31:49;;;;;;;3.15;2.90;;;;;;;;;;4916764;29;20209;-83
2021/08/13 06:34:18;;;;;;;4.60;3.47;;;;;;;;;;4916434;29;20242;-84
2021/08/13 06:36:47;;;;;;;2.83;2.63;;;;;;;;;;4916526;29;20211;-84
2021/08/13 06:39:14;;;;;;;2.80;2.60;;;;;;;;;;4916832;29;20219;-83
2021/08/13 06:41:41;;;;;;;3.95;3.65;;;;;;;;;;4916286;29;20202;-84
2021/08/13 06:44:10;;;;;;;4.47;3.65;;;;;;;;;;4916204;29;20215;-83
2021/08/13 06:46:38;;;;;;;3.78;3.47;;;;;;;;;;4916413;29;20222;-85
2021/08/13 06:49:05;;;;;;;3.78;3.33;;;;;;;;;;4916537;29;20214;-85
2021/08/13 06:51:33;;;;;;;3.33;3.05;;;;;;;;;;4915758;29;20213;-84
2021/08/13 06:54:01;;;;;;;5.13;3.95;;;;;;;;;;4916190;29;20603;-84
2021/08/13 06:56:29;;;;;;;3.42;3.13;;;;;;;;;;4916259;29;20210;-86
2021/08/13 06:58:57;;;;;;;3.10;2.78;;;;;;;;;;4916326;29;20574;-84
2021/08/13 07:01:24;;;;;;;3.75;3.47;;;;;;;;;;4906647;29;20198;-84
2021/08/13 07:03:52;;;;;;;3.95;3.15;;;;;;;;;;4910331;29;20218;-83
2021/08/13 07:06:19;;;;;;;5.10;4.60;;;;;;;;;;4908329;29;20222;-84
2021/08/13 07:08:46;;;;;;;5.30;4.80;;;;;;;;;;4900667;29;20195;-84
2021/08/13 07:11:15;;;;;;;3.30;3.00;;;;;;;;;;4900449;29;20203;-83
2021/08/13 07:13:43;;;;;;;3.75;3.45;;;;;;;;;;4900448;29;20233;-84
2021/08/13 07:16:10;;;;;;;3.30;2.90;;;;;;;;;;4903768;29;20795;-83
2021/08/13 07:18:38;;;;;;;6.40;3.22;;;;;;;;;;4900882;29;20196;-83
2021/08/13 07:21:05;;;;;;;2.83;2.63;;;;;;;;;;4918205;29;20210;-84
2021/08/13 07:23:32;;;;;;;3.10;2.80;;;;;;;;;;4918792;29;20214;-83
2021/08/13 07:26:00;;;;;;;3.50;3.15;;;;;;;;;;4917813;29;20216;-83
2021/08/13 07:28:29;;;;;;;3.97;3.58;;;;;;;;;;4913148;29;20206;-84
2021/08/13 07:30:56;;;;;;;3.60;3.30;;;;;;;;;;4918308;29;20208;-84
2021/08/13 07:33:24;;;;;;;5.50;3.65;;;;;;;;;;4914401;29;20199;-85
2021/08/13 07:35:51;;;;;;;3.33;3.05;;;;;;;;;;4899293;29;20239;-84
2021/08/13 07:38:19;;;;;;;3.83;3.53;;;;;;;;;;4907685;29;20294;-85
2021/08/13 07:40:46;;;;;;;7.15;3.30;;;;;;;;;;4918610;29;20191;-84
2021/08/13 07:43:15;;;;;;;3.30;3.03;;;;;;;;;;4918661;29;20191;-84
2021/08/13 07:45:44;;;;;;;3.60;3.30;;;;;;;;;;4918625;29;20226;-84
2021/08/13 07:48:11;;;;;;;4.18;3.78;;;;;;;;;;4918644;29;20219;-85
2021/08/13 07:50:39;;;;;;;4.25;3.95;;;;;;;;;;4918032;29;20207;-85
2021/08/13 07:53:06;;;;;;;3.83;3.40;;;;;;;;;;4918457;29;20197;-84
2021/08/13 07:55:35;;;;;;;3.92;3.20;;;;;;;;;;4917556;29;20233;-85
2021/08/13 07:58:02;;;;;;;4.00;3.50;;;;;;;;;;4917830;29;20211;-84
2021/08/13 08:00:30;;;;;;;3.05;2.75;;;;;;;;;;4918130;29;20190;-83
2021/08/13 08:02:58;;;;;;;4.38;3.97;;;;;;;;;;4918252;29;20197;-85
2021/08/13 08:05:26;;;;;;;3.25;3.05;;;;;;;;;;4918089;29;20219;-83
2021/08/13 08:07:53;;;;;;;3.53;3.30;;;;;;;;;;4909967;29;20316;-84
2021/08/13 08:10:21;;;;;;;2.95;2.75;;;;;;;;;;4898818;29;20192;-83
2021/08/13 08:12:48;;;;;;;3.22;3.03;;;;;;;;;;4898892;29;20206;-85
2021/08/13 08:15:16;;;;;;;4.18;3.78;;;;;;;;;;4898232;29;20226;-84
2021/08/13 08:17:43;;;;;;;3.40;3.10;;;;;;;;;;4898909;29;20191;-84
2021/08/13 08:20:12;;;;;;;3.03;2.83;;;;;;;;;;4898644;29;20677;-83
2021/08/13 08:22:40;;;;;;;3.00;2.80;;;;;;;;;;4899044;29;20194;-83
2021/08/13 08:25:09;;;;;;;3.08;2.88;;;;;;;;;;4897908;29;20223;-83
2021/08/13 08:27:36;;;;;;;3.15;2.95;;;;;;;;;;4898392;29;20274;-83
2021/08/13 08:30:05;;;;;;;3.80;3.35;;;;;;;;;;4898986;29;20259;-83
2021/08/13 08:32:32;;;;;;;3.00;2.80;;;;;;;;;;4915952;29;20646;-83
2021/08/13 08:35:00;;;;;;;3.03;2.83;;;;;;;;;;4917428;29;20245;-84
2021/08/13 08:37:29;;;;;;;3.10;2.90;;;;;;;;;;4917724;29;20201;-83
2021/08/13 08:39:56;;;;;;;3.90;3.50;;;;;;;;;;4917279;29;20199;-84
2021/08/13 08:42:24;;;;;;;3.58;3.28;;;;;;;;;;4917455;29;20194;-84
2021/08/13 08:44:52;;;;;;;3.97;3.63;;;;;;;;;;4917361;29;20313;-84
2021/08/13 08:47:21;;;;;;;3.53;3.22;;;;;;;;;;4917267;29;20222;-84
2021/08/13 08:49:51;;;;;;;4.40;4.00;;;;;;;;;;4916974;29;20270;-83
2021/08/13 08:52:19;;;;;;;4.03;3.72;;;;;;;;;;4917366;29;20194;-85
2021/08/13 08:54:48;;;;;;;2.97;2.78;;;;;;;;;;4916760;29;20709;-83
2021/08/13 08:57:16;;;;;;;3.67;3.38;;;;;;;;;;4917136;29;20198;-85
2021/08/13 08:59:44;;;;;;;4.20;3.90;;;;;;;;;;4911724;29;20202;-84
2021/08/13 09:02:12;;;;;;;4.00;3.70;;;;;;;;;;4917209;29;20202;-84
2021/08/13 09:04:40;;;;;;;4.45;4.07;;;;;;;;;;4916716;29;20230;-85
2021/08/13 09:07:07;;;;;;;4.95;3.08;;;;;;;;;;4916582;29;20210;-84
2021/08/13 09:09:35;;;;;;;3.88;3.58;;;;;;;;;;4916078;29;20217;-84
2021/08/13 09:12:05;;;;;;;3.60;3.30;;;;;;;;;;4899298;29;20191;-84
2021/08/13 09:14:41;;;;;;;3.25;3.05;;;;;;;;;;4916710;29;20230;-83
2021/08/13 09:17:09;;;;;;;3.80;3.40;;;;;;;;;;4898351;29;20259;-84
2021/08/13 09:19:45;;;;;;;4.13;3.70;;;;;;;;;;4898020;29;20199;-85
2021/08/13 09:22:15;;;;;;;3.72;3.42;;;;;;;;;;4898389;29;20190;-84
2021/08/13 09:24:45;;;;;;;4.43;4.10;;;;;;;;;;4897877;29;20226;-84
2021/08/13 09:27:20;;;;;;;3.42;3.22;;;;;;;;;;4902438;29;20199;-84
2021/08/13 09:30:12;;;;;;;3.85;3.55;;;;;;;;;;4915997;29;20221;-85
2021/08/13 09:32:41;;;;;;;4.93;3.90;;;;;;;;;;4897217;29;20299;-84
2021/08/13 09:35:10;;;;;;;4.63;3.85;;;;;;;;;;4897246;29;20234;-83
2021/08/13 09:37:38;;;;;;;3.65;3.35;;;;;;;;;;4897728;29;20187;-84
2021/08/13 09:40:08;;;;;;;4.60;3.83;;;;;;;;;;4897422;29;20183;-84
2021/08/13 09:42:39;;;;;;;3.72;3.42;;;;;;;;;;4897493;29;20234;-84
2021/08/13 09:45:09;;;;;;;4.13;3.83;;;;;;;;;;4897507;29;20238;-84
2021/08/13 09:47:45;;;;;;;3.72;3.42;;;;;;;;;;4907147;29;20567;-83
2021/08/13 09:50:15;;;;;;;3.50;3.20;;;;;;;;;;4898022;29;20201;-84
2021/08/13 09:52:44;;;;;;;4.03;3.10;;;;;;;;;;4903754;29;20198;-84
2021/08/13 09:55:14;;;;;;;3.38;2.85;;;;;;;;;;4916286;29;20298;-84
2021/08/13 09:57:47;;;;;;;3.50;3.20;;;;;;;;;;4916504;29;20210;-84
2021/08/13 10:00:17;;;;;;;3.97;3.67;;;;;;;;;;4916299;29;20194;-84
2021/08/13 10:02:46;;;;;;;3.95;3.65;;;;;;;;;;4916790;29;20191;-83
2021/08/13 10:05:22;;;;;;;2.75;2.55;;;;;;;;;;4907230;29;20723;-84
2021/08/13 10:07:51;;;;;;;2.83;2.63;;;;;;;;;;4899385;29;20229;-85
2021/08/13 10:10:24;;;;;;;3.75;3.45;;;;;;;;;;4899413;29;20655;-85
2021/08/13 10:12:54;;;;;;;3.70;3.40;;;;;;;;;;4899408;29;20642;-84
2021/08/13 10:15:31;;;;;;;4.18;3.88;;;;;;;;;;4918307;29;20233;-84
2021/08/13 10:18:01;;;;;;;3.60;3.30;;;;;;;;;;4918415;29;20673;-84
2021/08/13 10:20:31;;;;;;;4.35;3.95;;;;;;;;;;4918136;29;20210;-84
2021/08/13 10:22:58;;;;;;;4.00;3.70;;;;;;;;;;4917155;29;20206;-83
2021/08/13 10:25:26;;;;;;;3.63;3.42;;;;;;;;;;4914036;29;20226;-84
2021/08/13 10:27:55;;;;;;;4.15;3.85;;;;;;;;;;4914425;29;20191;-83
2021/08/13 10:30:24;;;;;;;4.20;3.78;;;;;;;;;;4916049;29;20199;-84
2021/08/13 10:32:56;;;;;;;4.65;4.32;;;;;;;;;;4916001;29;20199;-84
2021/08/13 10:35:28;;;;;;;4.88;4.47;;;;;;;;;;4914958;29;20234;-83
2021/08/13 10:37:57;;;;;;;4.45;4.07;;;;;;;;;;4915962;29;20198;-83
2021/08/13 10:40:25;;;;;;;4.00;3.70;;;;;;;;;;4915662;29;20183;-84
2021/08/13 10:42:54;;;;;;;3.03;2.83;;;;;;;;;;4919138;29;20187;-83
2021/08/13 10:45:24;;;;;;;3.10;2.88;;;;;;;;;;4918280;29;20230;-83
2021/08/13 10:47:58;;;;;;;3.40;3.10;;;;;;;;;;4911106;29;20202;-84
2021/08/13 10:50:25;;;;;;;3.60;3.30;;;;;;;;;;4913790;29;20696;-85
2021/08/13 10:52:53;;;;;;;3.63;3.33;;;;;;;;;;4901654;29;20192;-85
2021/08/13 10:55:45;;;;;;;3.47;3.28;;;;;;;;;;4909070;29;20231;-84
2021/08/13 10:58:53;;;;;;;4.78;3.50;;;;;;;;;;4909383;29;20199;-88
2021/08/13 11:01:21;;;;;;;3.42;3.20;;;;;;;;;;4919008;29;20206;-85
2021/08/13 11:04:13;;;;;;;3.38;3.17;;;;;;;;;;4917434;29;20309;-86
2021/08/13 11:06:46;;;;;;;4.22;3.92;;;;;;;;;;4913928;29;20199;-85
2021/08/13 11:09:14;;;;;;;3.72;3.42;;;;;;;;;;4901230;29;20211;-85
2021/08/13 11:12:11;;;;;;;4.55;4.22;;;;;;;;;;4901027;29;20602;-84
2021/08/13 11:14:58;;;;;;;3.97;3.67;;;;;;;;;;4898438;29;20702;-84
2021/08/13 11:17:40;;;;;;;4.45;4.05;;;;;;;;;;4916670;29;20676;-84
2021/08/13 11:20:10;;;;;;;3.67;3.38;;;;;;;;;;4917370;29;20535;-84
2021/08/13 11:22:39;;;;;;;3.60;3.40;;;;;;;;;;4914140;29;20198;-85
2021/08/13 11:25:08;;;;;;;4.10;3.60;;;;;;;;;;4899805;29;20222;-86
2021/08/13 11:27:36;;;;;;;4.10;3.72;;;;;;;;;;4907523;29;20191;-85
2021/08/13 11:30:06;;;;;;;3.38;3.17;;;;;;;;;;4918530;29;20230;-84
2021/08/13 11:32:39;;;;;;;3.88;3.58;;;;;;;;;;4918070;29;20218;-84
2021/08/13 11:35:09;;;;;;;3.30;3.05;;;;;;;;;;4905650;29;20242;-85
2021/08/13 11:37:51;;;;;;;4.25;3.85;;;;;;;;;;4899858;29;20274;-83
2021/08/13 11:40:49;;;;;;;4.00;3.70;;;;;;;;;;4914810;29;20846;-84
2021/08/13 11:43:18;;;;;;;4.30;3.90;;;;;;;;;;4918557;29;20206;-84
2021/08/13 11:45:49;;;;;;;2.55;2.45;;;;;;;;;;4904788;29;20223;-83
2021/08/13 11:48:18;;;;;;;3.30;3.10;;;;;;;;;;4905902;29;20191;-84
2021/08/13 11:50:46;;;;;;;3.17;2.97;;;;;;;;;;4901894;29;20581;-84
2021/08/13 11:53:13;;;;;;;3.78;3.45;;;;;;;;;;4915889;29;20208;-84
2021/08/13 11:55:44;;;;;;;3.38;3.17;;;;;;;;;;4936555;29;20228;-84
2021/08/13 11:58:24;;;;;;;3.67;3.38;;;;;;;;;;4920920;29;20285;-84
2021/08/13 12:01:04;;;;;;;3.40;3.20;;;;;;;;;;4917804;29;20197;-85
2021/08/13 12:03:32;;;;;;;3.05;2.85;;;;;;;;;;4918212;29;20200;-84
2021/08/13 12:05:59;;;;;;;3.72;3.47;;;;;;;;;;4918196;29;20206;-84
2021/08/13 12:08:27;;;;;;;3.25;3.05;;;;;;;;;;4917084;29;20214;-84
2021/08/13 12:10:54;;;;;;;3.53;3.30;;;;;;;;;;4929926;29;20215;-84
2021/08/13 12:13:23;;;;;;;3.38;3.08;;;;;;;;;;4918279;29;20202;-84
2021/08/13 12:15:59;;;;;;;4.25;3.95;;;;;;;;;;4918321;29;20269;-84
2021/08/13 12:18:35;;;;;;;3.67;3.35;;;;;;;;;;4917842;29;20233;-84
2021/08/13 12:21:06;;;;;;;3.88;3.38;;;;;;;;;;4917867;29;20206;-84
2021/08/13 12:23:33;;;;;;;3.92;3.63;;;;;;;;;;4918495;29;20194;-84
2021/08/13 12:26:03;;;;;;;3.58;3.28;;;;;;;;;;4918528;29;20567;-84
2021/08/13 12:28:36;;;;;;;3.13;2.92;;;;;;;;;;4917892;29;20194;-84
2021/08/13 12:31:08;;;;;;;3.55;3.28;;;;;;;;;;4918374;29;20719;-84
2021/08/13 12:33:37;;;;;;;3.78;3.22;;;;;;;;;;4918477;29;20668;-84
2021/08/13 12:36:16;;;;;;;2.63;2.50;;;;;;;;;;4936999;29;20205;-84
2021/08/13 12:38:45;;;;;;;3.10;2.90;;;;;;;;;;4937002;29;20206;-84
2021/08/13 12:41:13;;;;;;;3.90;3.53;;;;;;;;;;4937969;29;20209;-84
2021/08/13 12:43:40;;;;;;;3.55;3.25;;;;;;;;;;4919654;29;20201;-84
2021/08/13 12:46:08;;;;;;;3.58;3.38;;;;;;;;;;4918412;29;20190;-83
2021/08/13 12:48:37;;;;;;;3.90;3.60;;;;;;;;;;4915495;29;20188;-84
2021/08/13 12:51:05;;;;;;;3.63;3.33;;;;;;;;;;4899386;29;20227;-84
2021/08/13 12:53:35;;;;;;;3.83;3.53;;;;;;;;;;4900129;29;20574;-84
2021/08/13 12:56:03;;;;;;;3.08;2.88;;;;;;;;;;4900931;29;20284;-84
2021/08/13 12:58:33;;;;;;;3.28;3.00;;;;;;;;;;4900755;29;20207;-84
2021/08/13 13:01:27;;;;;;;3.33;3.13;;;;;;;;;;4906067;29;20269;-84
2021/08/13 13:04:14;;;;;;;2.83;2.63;;;;;;;;;;4917006;29;20233;-84
2021/08/13 13:06:43;;;;;;;3.17;2.97;;;;;;;;;;4911341;29;20277;-83
2021/08/13 13:09:11;;;;;;;2.95;2.75;;;;;;;;;;4903215;29;20186;-84
2021/08/13 13:11:40;;;;;;;3.08;2.78;;;;;;;;;;4918896;29;20186;-83
2021/08/13 13:14:08;;;;;;;4.10;3.70;;;;;;;;;;4919998;29;20228;-82
2021/08/13 13:16:38;;;;;;;3.88;3.58;;;;;;;;;;4907854;29;20655;-83
2021/08/13 13:19:21;;;;;;;3.42;3.13;;;;;;;;;;4911835;29;20187;-83
2021/08/13 13:21:50;;;;;;;3.63;3.42;;;;;;;;;;4906991;29;20289;-83
2021/08/13 13:24:24;;;;;;;2.65;2.45;;;;;;;;;;4917207;29;20226;-83
2021/08/13 13:27:01;;;;;;;3.55;3.35;;;;;;;;;;4917129;29;20204;-83
2021/08/13 13:29:42;;;;;;;4.28;3.35;;;;;;;;;;4917287;29;20186;-83
2021/08/13 13:32:16;;;;;;;2.72;2.53;;;;;;;;;;4916860;29;20535;-83
2021/08/13 13:35:00;;;;;;;2.75;2.55;;;;;;;;;;4916603;29;20780;-83
2021/08/13 13:37:29;;;;;;;2.55;2.38;;;;;;;;;;4916806;29;20201;-83
2021/08/13 13:39:56;;;;;;;2.95;2.72;;;;;;;;;;4932974;29;20197;-83
2021/08/13 13:42:27;;;;;;;2.88;2.67;;;;;;;;;;4936015;29;20204;-83
2021/08/13 13:45:07;;;;;;;3.42;3.15;;;;;;;;;;4935402;29;20225;-83
2021/08/13 13:47:36;;;;;;;4.28;3.85;;;;;;;;;;4935559;29;20185;-84
2021/08/13 13:50:06;;;;;;;3.47;3.28;;;;;;;;;;4935492;29;20221;-83
2021/08/13 13:52:33;;;;;;;3.72;3.50;;;;;;;;;;4935377;29;20549;-83
2021/08/13 13:55:01;;;;;;;3.22;3.03;;;;;;;;;;4936675;29;20235;-84
2021/08/13 13:57:28;;;;;;;2.92;2.72;;;;;;;;;;4936299;29;20590;-83
2021/08/13 13:59:56;;;;;;;3.33;3.13;;;;;;;;;;4936499;29;20562;-83
2021/08/13 14:02:24;;;;;;;3.53;3.22;;;;;;;;;;4935933;29;20198;-83
2021/08/13 14:04:52;;;;;;;3.22;3.03;;;;;;;;;;4936567;29;20221;-83
2021/08/13 14:07:21;;;;;;;3.30;3.08;;;;;;;;;;4921116;29;20197;-83
2021/08/13 14:09:48;;;;;;;3.63;3.35;;;;;;;;;;4905309;29;20191;-83
2021/08/13 14:12:16;;;;;;;3.33;3.08;;;;;;;;;;4897532;29;20217;-84
2021/08/13 14:14:44;;;;;;;3.95;3.17;;;;;;;;;;4910005;29;20234;-83
2021/08/13 14:17:12;;;;;;;2.80;2.60;;;;;;;;;;4919809;29;20569;-82
2021/08/13 14:19:40;;;;;;;3.30;3.03;;;;;;;;;;4920189;29;20206;-82
2021/08/13 14:22:07;;;;;;;3.33;3.10;;;;;;;;;;4920279;29;20561;-83
2021/08/13 14:24:36;;;;;;;2.78;2.58;;;;;;;;;;4912319;29;20227;-82
2021/08/13 14:27:04;;;;;;;2.90;2.70;;;;;;;;;;4920474;29;20194;-83
2021/08/13 14:29:32;;;;;;;3.05;2.85;;;;;;;;;;4920246;29;20665;-82
2021/08/13 14:31:59;;;;;;;2.90;2.70;;;;;;;;;;4919812;29;20210;-83
2021/08/13 14:34:27;;;;;;;3.42;3.22;;;;;;;;;;4920063;29;20269;-82
2021/08/13 14:36:55;;;;;;;3.03;2.83;;;;;;;;;;4919921;29;20206;-84
2021/08/13 14:39:23;;;;;;;3.10;2.90;;;;;;;;;;4922580;29;20219;-83
2021/08/13 14:41:52;;;;;;;3.28;3.08;;;;;;;;;;4920622;29;20207;-84
2021/08/13 14:44:23;;;;;;;4.07;3.78;;;;;;;;;;4920859;29;20645;-85
2021/08/13 14:46:52;;;;;;;3.80;3.38;;;;;;;;;;4920461;29;20202;-84
2021/08/13 14:49:20;;;;;;;3.97;3.47;;;;;;;;;;4920404;29;20206;-85
2021/08/13 14:51:48;;;;;;;4.05;3.75;;;;;;;;;;4920388;29;20206;-84
2021/08/13 14:54:15;;;;;;;4.00;3.70;;;;;;;;;;4919856;29;20215;-84
2021/08/13 14:56:44;;;;;;;5.53;5.03;;;;;;;;;;4920407;29;20294;-84